Time;durP1;ratioP1;P1;durP2;ratioP2;P2;SDS_P1;SDS_P2;PMS_P1;PMS_P2;Temp;Humidity;BMP_temperature;BMP_pressure;BME280_temperature;BME280_humidity;BME280_pressure;Samples;Min_cycle;Max_cycle;Signal;HPM_P1;HPM_P2
2022/09/11 00:02:20;;;;;;;0.40;0.40;;;14.80;99.90;;;;;;5099726;28;20636;-79
2022/09/11 00:04:47;;;;;;;0.70;0.57;;;14.80;99.90;;;;;;5090237;28;20673;-79
2022/09/11 00:07:14;;;;;;;0.50;0.50;;;14.80;99.90;;;;;;5089250;28;20625;-78
2022/09/11 00:09:40;;;;;;;0.70;0.70;;;14.80;99.90;;;;;;5089310;28;20619;-79
2022/09/11 00:12:08;;;;;;;0.60;0.40;;;14.90;99.90;;;;;;5088031;28;20665;-78
2022/09/11 00:14:35;;;;;;;0.60;0.50;;;14.90;99.90;;;;;;5104520;28;20628;-78
2022/09/11 00:17:03;;;;;;;0.50;0.40;;;14.80;99.90;;;;;;5090216;28;21071;-79
2022/09/11 00:19:30;;;;;;;0.70;0.67;;;14.80;99.90;;;;;;5099067;28;20635;-79
2022/09/11 00:21:57;;;;;;;0.43;0.43;;;14.90;99.90;;;;;;5108573;28;20631;-79
2022/09/11 00:24:24;;;;;;;0.70;0.70;;;14.90;99.90;;;;;;5090243;28;20896;-81
2022/09/11 00:26:51;;;;;;;1.50;0.53;;;14.80;99.90;;;;;;5095105;28;20631;-80
2022/09/11 00:29:18;;;;;;;0.80;0.60;;;14.80;99.90;;;;;;5088904;28;20648;-78
2022/09/11 00:31:45;;;;;;;1.93;0.97;;;14.80;99.90;;;;;;5107313;28;20619;-78
2022/09/11 00:34:13;;;;;;;1.57;0.77;;;14.90;99.90;;;;;;5102591;28;20624;-79
2022/09/11 00:36:42;;;;;;;1.17;0.70;;;14.90;99.90;;;;;;5094905;28;20620;-78
2022/09/11 00:39:09;;;;;;;0.90;0.67;;;14.80;99.90;;;;;;5105167;28;20632;-78
2022/09/11 00:41:39;;;;;;;0.80;0.50;;;14.80;99.90;;;;;;5107195;28;20616;-78
2022/09/11 00:44:28;;;;;;;0.40;0.40;;;14.80;99.90;;;;;;5093351;28;20620;-78
2022/09/11 00:46:57;;;;;;;0.97;0.67;;;15.00;99.90;;;;;;5086939;28;20620;-80
2022/09/11 00:49:29;;;;;;;0.50;0.50;;;14.80;99.90;;;;;;5094284;28;20981;-78
2022/09/11 00:51:59;;;;;;;0.53;0.50;;;14.80;99.90;;;;;;5095437;28;20632;-78
2022/09/11 00:54:30;;;;;;;1.60;0.63;;;14.80;99.90;;;;;;5086648;28;20620;-77
2022/09/11 00:57:00;;;;;;;0.53;0.40;;;14.80;99.90;;;;;;5101407;28;20627;-78
2022/09/11 00:59:29;;;;;;;0.57;0.50;;;14.80;99.90;;;;;;5098291;28;20995;-78
2022/09/11 01:01:56;;;;;;;1.43;0.80;;;14.70;99.90;;;;;;5088840;28;20623;-80
2022/09/11 01:04:25;;;;;;;0.50;0.50;;;14.80;99.90;;;;;;5105673;28;21062;-79
2022/09/11 01:06:55;;;;;;;1.00;0.50;;;14.80;99.90;;;;;;5106419;28;20611;-80
2022/09/11 01:09:22;;;;;;;0.70;0.70;;;14.90;99.90;;;;;;5100214;28;20640;-78
2022/09/11 01:11:59;;;;;;;0.50;0.50;;;14.80;99.90;;;;;;5107062;28;20619;-80
2022/09/11 01:14:40;;;;;;;0.80;0.80;;;14.80;99.90;;;;;;5087969;28;20629;-79
2022/09/11 01:17:19;;;;;;;0.80;0.80;;;14.80;99.90;;;;;;5086638;28;21001;-77
2022/09/11 01:20:19;;;;;;;2.20;1.17;;;14.80;99.90;;;;;;5101453;28;20615;-80
2022/09/11 01:23:02;;;;;;;0.57;0.57;;;14.80;99.90;;;;;;5089229;28;20625;-79
2022/09/11 01:25:44;;;;;;;0.60;0.50;;;14.80;99.90;;;;;;5098661;28;20718;-77
2022/09/11 01:28:16;;;;;;;1.27;0.90;;;14.80;99.90;;;;;;5094942;28;21292;-78
2022/09/11 01:30:49;;;;;;;1.23;0.70;;;14.70;99.90;;;;;;5088036;28;20724;-79
2022/09/11 01:33:27;;;;;;;0.47;0.47;;;14.70;99.90;;;;;;5087823;28;20652;-79
2022/09/11 01:36:01;;;;;;;0.70;0.70;;;14.80;99.90;;;;;;5089014;28;20621;-80
2022/09/11 01:38:36;;;;;;;0.50;0.40;;;14.70;99.90;;;;;;5100042;28;20628;-80
2022/09/11 01:41:11;;;;;;;0.47;0.47;;;14.70;99.90;;;;;;5095881;28;21092;-80
2022/09/11 01:43:46;;;;;;;0.67;0.67;;;14.70;99.90;;;;;;5106009;28;20628;-78
2022/09/11 01:46:21;;;;;;;0.40;0.30;;;14.80;99.90;;;;;;5089353;28;20635;-80
2022/09/11 01:48:55;;;;;;;0.53;0.53;;;14.70;99.90;;;;;;5097322;28;21168;-79
2022/09/11 01:51:28;;;;;;;0.90;0.90;;;14.70;99.90;;;;;;5101786;28;21851;-79
2022/09/11 01:53:58;;;;;;;0.70;0.70;;;14.60;99.90;;;;;;5098809;28;20686;-79
2022/09/11 01:56:32;;;;;;;0.80;0.60;;;14.70;99.90;;;;;;5097973;28;20620;-79
2022/09/11 01:59:04;;;;;;;1.00;0.77;;;14.60;99.90;;;;;;5094813;28;20673;-79
2022/09/11 02:01:35;;;;;;;0.60;0.60;;;14.70;99.90;;;;;;5090816;28;20663;-79
2022/09/11 02:04:09;;;;;;;0.70;0.50;;;14.70;99.90;;;;;;5109041;28;20634;-77
2022/09/11 02:06:40;;;;;;;0.50;0.50;;;14.70;99.90;;;;;;5110577;28;21002;-78
2022/09/11 02:09:10;;;;;;;1.53;0.93;;;14.60;99.90;;;;;;5109039;28;21138;-79
2022/09/11 02:11:40;;;;;;;0.60;0.60;;;14.70;99.90;;;;;;5100983;28;20670;-78
2022/09/11 02:14:17;;;;;;;1.87;0.90;;;14.70;99.90;;;;;;5094609;28;21268;-80
2022/09/11 02:16:50;;;;;;;1.13;1.03;;;14.70;99.90;;;;;;5109391;28;20623;-78
2022/09/11 02:19:19;;;;;;;0.50;0.50;;;14.70;99.90;;;;;;5109087;28;20603;-79
2022/09/11 02:21:49;;;;;;;0.57;0.50;;;14.60;99.90;;;;;;5102199;28;20726;-79
2022/09/11 02:24:22;;;;;;;2.83;1.27;;;14.60;99.90;;;;;;5104935;28;20722;-80
2022/09/11 02:26:54;;;;;;;0.73;0.73;;;14.60;99.90;;;;;;5109633;28;20627;-80
2022/09/11 02:29:23;;;;;;;0.80;0.80;;;14.60;99.90;;;;;;5093163;28;20690;-80
2022/09/11 02:31:53;;;;;;;4.43;1.30;;;14.60;99.90;;;;;;5089550;28;21186;-79
2022/09/11 02:34:25;;;;;;;1.43;0.90;;;14.60;99.90;;;;;;5098206;28;20656;-80
2022/09/11 02:37:13;;;;;;;0.60;0.60;;;14.70;99.90;;;;;;5095998;28;21027;-78
2022/09/11 02:40:13;;;;;;;0.67;0.67;;;14.70;99.90;;;;;;5089328;28;21351;-80
2022/09/11 02:42:56;;;;;;;0.50;0.50;;;14.60;99.90;;;;;;5092544;28;21204;-80
2022/09/11 02:45:34;;;;;;;0.97;0.77;;;14.60;99.90;;;;;;5088420;28;20663;-78
2022/09/11 02:48:15;;;;;;;1.30;0.90;;;14.60;99.90;;;;;;5088413;28;20685;-80
2022/09/11 02:50:48;;;;;;;1.17;0.77;;;14.60;99.90;;;;;;5088871;28;20682;-78
2022/09/11 02:53:25;;;;;;;1.00;1.00;;;14.60;99.90;;;;;;5097875;28;21336;-79
2022/09/11 02:56:01;;;;;;;0.83;0.83;;;14.60;99.90;;;;;;5108693;28;20623;-79
2022/09/11 02:58:33;;;;;;;0.77;0.70;;;14.70;99.90;;;;;;5103548;27;20623;-79
2022/09/11 03:01:03;;;;;;;0.83;0.83;;;14.60;99.90;;;;;;5089729;28;20724;-80
2022/09/11 03:03:37;;;;;;;0.77;0.77;;;14.50;99.90;;;;;;5103063;28;21039;-80
2022/09/11 03:06:04;;;;;;;0.60;0.60;;;14.70;99.90;;;;;;5101469;28;20621;-79
2022/09/11 03:08:31;;;;;;;0.50;0.50;;;14.60;99.90;;;;;;5104512;28;20655;-78
2022/09/11 03:10:58;;;;;;;2.77;0.90;;;14.60;99.90;;;;;;5089527;28;20982;-79
2022/09/11 03:13:25;;;;;;;1.23;1.00;;;14.60;99.90;;;;;;5104726;28;21001;-80
2022/09/11 03:15:53;;;;;;;1.10;0.93;;;14.60;99.90;;;;;;5107981;28;20731;-79
2022/09/11 03:18:22;;;;;;;0.73;0.73;;;14.70;99.90;;;;;;5097924;28;20624;-79
2022/09/11 03:20:48;;;;;;;1.00;0.60;;;14.70;99.90;;;;;;5104222;28;21138;-80
2022/09/11 03:23:15;;;;;;;1.43;0.80;;;14.70;99.90;;;;;;5097004;28;20605;-79
2022/09/11 03:25:42;;;;;;;1.20;1.10;;;14.80;99.90;;;;;;5090985;28;20640;-78
2022/09/11 03:28:09;;;;;;;1.90;1.17;;;14.80;99.90;;;;;;5101206;28;20716;-79
2022/09/11 03:30:36;;;;;;;0.73;0.73;;;14.70;99.90;;;;;;5090058;28;20713;-79
2022/09/11 03:33:03;;;;;;;1.17;1.00;;;14.60;99.90;;;;;;5099877;28;21239;-79
2022/09/11 03:35:32;;;;;;;1.00;1.00;;;14.70;99.90;;;;;;5107327;28;20977;-80
2022/09/11 03:37:59;;;;;;;1.60;0.83;;;14.70;99.90;;;;;;5107471;28;20607;-79
2022/09/11 03:40:26;;;;;;;1.07;0.73;;;14.70;99.90;;;;;;5103543;28;20628;-79
2022/09/11 03:42:53;;;;;;;0.97;0.77;;;14.70;99.90;;;;;;5088720;28;20686;-79
2022/09/11 03:45:21;;;;;;;1.00;1.00;;;14.70;99.90;;;;;;5090849;28;20741;-79
2022/09/11 03:47:47;;;;;;;0.87;0.87;;;14.70;99.90;;;;;;5108253;28;20696;-79
2022/09/11 03:50:14;;;;;;;0.93;0.90;;;14.70;99.90;;;;;;5090349;28;20693;-79
2022/09/11 03:52:43;;;;;;;0.90;0.90;;;14.70;99.90;;;;;;5092043;28;20620;-79
2022/09/11 03:55:10;;;;;;;0.87;0.87;;;14.80;99.90;;;;;;5098417;28;20632;-78
2022/09/11 03:57:37;;;;;;;1.10;0.80;;;14.70;99.90;;;;;;5087551;28;20627;-79
2022/09/11 04:00:06;;;;;;;1.50;1.40;;;14.70;99.90;;;;;;5087631;28;20636;-79
2022/09/11 04:02:33;;;;;;;0.97;0.97;;;14.70;99.90;;;;;;5094255;28;20608;-79
2022/09/11 04:05:01;;;;;;;0.90;0.90;;;14.80;99.90;;;;;;5093198;28;20635;-80
2022/09/11 04:07:30;;;;;;;1.70;1.10;;;14.80;99.90;;;;;;5090262;28;20646;-78
2022/09/11 04:09:58;;;;;;;2.00;1.43;;;14.70;99.90;;;;;;5107653;28;20611;-79
2022/09/11 04:12:25;;;;;;;1.77;1.67;;;14.70;99.90;;;;;;5087868;28;20624;-79
2022/09/11 04:14:52;;;;;;;1.27;1.13;;;14.70;99.90;;;;;;5087721;28;20752;-78
2022/09/11 04:17:18;;;;;;;1.30;1.20;;;14.60;99.90;;;;;;5086614;28;20624;-78
2022/09/11 04:19:45;;;;;;;1.33;1.13;;;14.70;99.90;;;;;;5087931;28;20619;-79
2022/09/11 04:22:12;;;;;;;1.00;1.00;;;14.60;99.90;;;;;;5087394;28;21013;-80
2022/09/11 04:24:39;;;;;;;2.40;1.50;;;14.70;99.90;;;;;;5087190;28;20628;-80
2022/09/11 04:27:07;;;;;;;2.30;1.47;;;14.70;99.90;;;;;;5087510;28;20623;-79
2022/09/11 04:29:34;;;;;;;1.40;1.30;;;14.70;99.90;;;;;;5088073;28;20624;-80
2022/09/11 04:32:01;;;;;;;1.20;1.13;;;14.70;99.90;;;;;;5100595;28;20659;-77
2022/09/11 04:34:28;;;;;;;1.07;1.07;;;14.70;99.90;;;;;;5107201;28;20663;-79
2022/09/11 04:36:55;;;;;;;1.00;0.90;;;14.60;99.90;;;;;;5107215;28;20623;-79
2022/09/11 04:39:22;;;;;;;1.50;1.40;;;14.70;99.90;;;;;;5102653;28;20631;-81
2022/09/11 04:41:48;;;;;;;1.80;1.70;;;14.60;99.90;;;;;;5105368;28;21189;-80
2022/09/11 04:44:19;;;;;;;1.33;1.13;;;14.70;99.90;;;;;;5087821;28;20644;-78
2022/09/11 04:46:47;;;;;;;2.47;1.30;;;14.70;99.90;;;;;;5103194;28;20620;-80
2022/09/11 04:49:14;;;;;;;2.07;1.80;;;14.70;99.90;;;;;;5098527;28;20630;-79
2022/09/11 04:51:41;;;;;;;1.00;1.00;;;14.70;99.90;;;;;;5087855;28;20779;-79
2022/09/11 04:54:12;;;;;;;2.40;2.20;;;14.70;99.90;;;;;;5100616;28;20671;-81
2022/09/11 04:56:38;;;;;;;2.97;1.70;;;14.80;99.90;;;;;;5107659;28;20666;-79
2022/09/11 04:59:12;;;;;;;1.60;1.50;;;14.70;99.90;;;;;;5096927;28;20621;-79
2022/09/11 05:01:40;;;;;;;1.60;1.50;;;14.80;99.90;;;;;;5089262;28;21212;-80
2022/09/11 05:04:07;;;;;;;1.57;1.13;;;14.80;99.90;;;;;;5106083;28;20623;-80
2022/09/11 05:06:34;;;;;;;1.57;1.47;;;14.80;99.90;;;;;;5107149;28;20632;-79
2022/09/11 05:09:03;;;;;;;3.50;2.00;;;14.80;99.90;;;;;;5102695;28;20718;-80
2022/09/11 05:11:30;;;;;;;1.43;1.27;;;14.80;99.90;;;;;;5095655;28;20637;-78
2022/09/11 05:13:58;;;;;;;2.50;2.30;;;14.80;99.90;;;;;;5093723;28;20648;-80
2022/09/11 05:16:27;;;;;;;1.70;1.50;;;14.80;99.90;;;;;;5107651;28;21272;-79
2022/09/11 05:18:56;;;;;;;1.90;1.70;;;14.80;99.90;;;;;;5098269;28;21085;-78
2022/09/11 05:21:25;;;;;;;1.60;1.37;;;14.80;99.90;;;;;;5110793;28;20628;-79
2022/09/11 05:23:53;;;;;;;1.70;1.60;;;14.80;99.90;;;;;;5101892;28;20732;-80
2022/09/11 05:26:22;;;;;;;1.73;1.33;;;14.80;99.90;;;;;;5093498;28;20632;-80
2022/09/11 05:28:53;;;;;;;1.43;1.30;;;14.80;99.90;;;;;;5098455;28;20645;-80
2022/09/11 05:31:20;;;;;;;1.43;1.33;;;14.90;99.90;;;;;;5111134;28;20638;-79
2022/09/11 05:33:48;;;;;;;1.87;1.77;;;14.90;99.90;;;;;;5108239;28;20654;-80
2022/09/11 05:36:16;;;;;;;2.20;2.00;;;14.80;99.90;;;;;;5106719;28;20624;-79
2022/09/11 05:38:44;;;;;;;2.50;1.87;;;14.80;99.90;;;;;;5109509;28;20629;-78
2022/09/11 05:41:13;;;;;;;2.40;2.00;;;14.90;99.90;;;;;;5108689;28;20647;-79
2022/09/11 05:43:41;;;;;;;2.03;1.93;;;14.90;99.90;;;;;;5109933;28;20732;-79
2022/09/11 05:46:11;;;;;;;1.80;1.70;;;14.90;99.90;;;;;;5105994;28;21207;-79
2022/09/11 05:48:38;;;;;;;1.87;1.73;;;15.00;99.90;;;;;;5110020;28;20620;-80
2022/09/11 05:51:08;;;;;;;1.83;1.33;;;15.00;99.90;;;;;;5108765;28;20628;-79
2022/09/11 05:53:37;;;;;;;1.80;1.70;;;15.00;99.90;;;;;;5108804;28;20616;-79
2022/09/11 05:56:09;;;;;;;2.03;1.40;;;15.00;99.90;;;;;;5106562;28;20623;-81
2022/09/11 05:58:36;;;;;;;2.10;1.90;;;14.90;99.90;;;;;;5108390;28;20626;-80
2022/09/11 06:01:05;;;;;;;2.53;1.80;;;15.00;99.90;;;;;;5109176;28;20615;-78
2022/09/11 06:03:32;;;;;;;1.73;1.63;;;15.00;99.90;;;;;;5109119;28;21195;-79
2022/09/11 06:06:00;;;;;;;1.73;1.63;;;15.00;99.90;;;;;;5107779;28;20620;-79
2022/09/11 06:08:27;;;;;;;2.40;2.20;;;15.00;99.90;;;;;;5104514;28;20631;-80
2022/09/11 06:10:57;;;;;;;3.37;1.97;;;15.00;99.90;;;;;;5107099;28;20707;-80
2022/09/11 06:13:24;;;;;;;1.97;1.87;;;15.00;99.90;;;;;;5104193;28;20616;-79
2022/09/11 06:15:51;;;;;;;5.33;2.50;;;15.00;99.90;;;;;;5107224;28;20669;-79
2022/09/11 06:18:18;;;;;;;1.70;1.50;;;15.20;99.90;;;;;;5109789;28;20619;-79
2022/09/11 06:20:55;;;;;;;2.40;2.20;;;15.00;99.90;;;;;;5108428;28;21022;-79
2022/09/11 06:23:22;;;;;;;2.50;2.10;;;15.10;99.90;;;;;;5109590;28;20658;-79
2022/09/11 06:25:49;;;;;;;4.30;1.30;;;15.10;99.90;;;;;;5107185;28;20623;-80
2022/09/11 06:28:17;;;;;;;2.60;2.40;;;15.20;99.90;;;;;;5107222;28;20645;-79
2022/09/11 06:30:43;;;;;;;2.40;2.20;;;15.30;99.90;;;;;;5105217;27;20614;-80
2022/09/11 06:33:10;;;;;;;1.70;1.60;;;15.20;99.90;;;;;;5104991;28;20735;-81
2022/09/11 06:35:37;;;;;;;2.07;1.63;;;15.20;99.90;;;;;;5107133;28;20694;-79
2022/09/11 06:38:04;;;;;;;2.60;2.27;;;15.30;99.90;;;;;;5103796;28;20729;-79
2022/09/11 06:40:31;;;;;;;3.20;1.90;;;15.20;99.90;;;;;;5102528;27;21301;-81
2022/09/11 06:42:58;;;;;;;1.93;1.77;;;15.30;99.90;;;;;;5107231;28;20616;-80
2022/09/11 06:45:26;;;;;;;2.13;1.97;;;15.30;99.90;;;;;;5107076;28;20643;-78
2022/09/11 06:47:53;;;;;;;1.90;1.80;;;15.20;99.90;;;;;;5105222;28;20625;-80
2022/09/11 06:50:22;;;;;;;3.10;2.00;;;15.30;99.90;;;;;;5102905;28;20747;-80
2022/09/11 06:52:50;;;;;;;2.13;1.93;;;15.30;99.90;;;;;;5107226;27;20628;-79
2022/09/11 06:55:17;;;;;;;2.87;1.90;;;15.30;99.90;;;;;;5104463;28;20671;-80
2022/09/11 06:57:44;;;;;;;2.67;2.47;;;15.40;99.90;;;;;;5104865;28;20726;-80
2022/09/11 07:00:11;;;;;;;2.70;2.20;;;15.20;99.90;;;;;;5106231;27;20739;-81
2022/09/11 07:02:41;;;;;;;2.70;1.80;;;15.40;99.90;;;;;;5104528;28;20719;-80
2022/09/11 07:05:09;;;;;;;2.60;2.10;;;15.40;99.90;;;;;;5104846;28;20624;-79
2022/09/11 07:07:38;;;;;;;2.73;2.10;;;15.40;99.90;;;;;;5105276;28;20631;-79
2022/09/11 07:10:08;;;;;;;3.47;2.60;;;15.40;99.90;;;;;;5092604;28;20633;-80
2022/09/11 07:12:34;;;;;;;3.83;2.97;;;15.40;99.90;;;;;;5108151;28;20658;-79
2022/09/11 07:15:01;;;;;;;2.17;1.97;;;15.50;99.90;;;;;;5104600;28;20778;-82
2022/09/11 07:17:28;;;;;;;2.07;1.70;;;15.30;99.90;;;;;;5104070;28;20992;-79
2022/09/11 07:19:56;;;;;;;2.40;2.20;;;15.50;99.90;;;;;;5106048;28;20619;-80
2022/09/11 07:22:23;;;;;;;2.07;1.60;;;15.60;99.90;;;;;;5106013;28;20628;-79
2022/09/11 07:24:53;;;;;;;1.83;1.70;;;15.70;99.90;;;;;;5107077;28;20622;-81
2022/09/11 07:27:20;;;;;;;2.20;1.93;;;15.70;99.90;;;;;;5107610;28;20664;-79
2022/09/11 07:29:47;;;;;;;2.93;2.17;;;15.90;99.90;;;;;;5087284;28;21272;-79
2022/09/11 07:32:14;;;;;;;2.97;2.67;;;15.70;99.90;;;;;;5103991;28;21016;-80
2022/09/11 07:34:41;;;;;;;3.20;2.20;;;15.70;99.90;;;;;;5093794;28;20671;-79
2022/09/11 07:37:09;;;;;;;3.00;2.30;;;15.70;99.90;;;;;;5088716;28;20617;-80
2022/09/11 07:39:36;;;;;;;2.63;2.43;;;15.80;99.90;;;;;;5108580;28;21233;-81
2022/09/11 07:42:03;;;;;;;2.93;2.20;;;15.80;99.90;;;;;;5103483;28;20968;-78
2022/09/11 07:44:30;;;;;;;1.43;1.33;;;15.90;99.90;;;;;;5106732;28;20626;-79
2022/09/11 07:46:57;;;;;;;2.30;2.13;;;15.90;99.90;;;;;;5092119;28;20628;-79
2022/09/11 07:49:25;;;;;;;2.93;2.10;;;16.00;99.90;;;;;;5087822;28;21301;-80
2022/09/11 07:51:53;;;;;;;3.17;2.20;;;16.00;99.90;;;;;;5101610;28;20721;-80
2022/09/11 07:54:21;;;;;;;2.37;1.77;;;15.90;99.90;;;;;;5105142;28;20643;-79
2022/09/11 07:56:48;;;;;;;2.33;2.13;;;16.00;99.90;;;;;;5106897;28;20635;-79
2022/09/11 07:59:16;;;;;;;2.00;1.90;;;16.00;99.90;;;;;;5106902;28;20628;-80
2022/09/11 08:01:44;;;;;;;2.57;2.30;;;16.10;99.90;;;;;;5094949;28;20633;-80
2022/09/11 08:04:13;;;;;;;2.17;2.07;;;16.10;99.90;;;;;;5102370;28;20620;-80
2022/09/11 08:06:40;;;;;;;2.47;2.27;;;16.20;99.90;;;;;;5087906;28;21037;-79
2022/09/11 08:09:09;;;;;;;3.47;2.40;;;16.10;99.90;;;;;;5096560;28;20976;-79
2022/09/11 08:11:39;;;;;;;2.63;2.10;;;16.20;99.90;;;;;;5106825;28;21173;-80
2022/09/11 08:14:06;;;;;;;1.60;1.50;;;16.10;99.90;;;;;;5102827;28;20628;-80
2022/09/11 08:16:34;;;;;;;2.13;1.90;;;16.20;99.90;;;;;;5093783;28;21181;-79
2022/09/11 08:19:02;;;;;;;3.50;2.13;;;16.20;99.90;;;;;;5095807;28;20986;-79
2022/09/11 08:21:28;;;;;;;2.33;1.93;;;16.20;99.90;;;;;;5107391;28;20654;-80
2022/09/11 08:23:55;;;;;;;2.37;2.10;;;16.30;99.90;;;;;;5106612;28;20703;-80
2022/09/11 08:26:24;;;;;;;2.63;2.43;;;16.70;99.90;;;;;;5103903;28;20619;-80
2022/09/11 08:28:54;;;;;;;2.57;2.37;;;16.30;99.90;;;;;;5104088;28;21284;-79
2022/09/11 08:31:25;;;;;;;2.70;2.20;;;16.30;99.90;;;;;;5106930;28;20616;-79
2022/09/11 08:33:52;;;;;;;3.20;2.90;;;16.30;99.90;;;;;;5106778;28;20620;-80
2022/09/11 08:36:19;;;;;;;3.70;2.77;;;16.30;99.90;;;;;;5106253;28;20663;-81
2022/09/11 08:38:47;;;;;;;3.53;2.47;;;16.30;99.90;;;;;;5106548;28;20620;-79
2022/09/11 08:41:27;;;;;;;3.17;2.67;;;16.30;99.90;;;;;;5104037;28;20624;-79
2022/09/11 08:43:59;;;;;;;2.23;2.00;;;16.50;99.90;;;;;;5105171;28;20612;-81
2022/09/11 08:46:36;;;;;;;2.60;2.10;;;16.50;99.90;;;;;;5106019;28;21242;-80
2022/09/11 08:49:08;;;;;;;2.80;2.23;;;16.80;99.90;;;;;;5102663;28;21160;-80
2022/09/11 08:51:36;;;;;;;2.70;2.50;;;16.90;99.90;;;;;;5101003;28;20620;-82
2022/09/11 08:54:03;;;;;;;3.00;2.53;;;16.90;99.90;;;;;;5103040;28;20627;-81
2022/09/11 08:56:33;;;;;;;2.50;2.40;;;16.90;99.90;;;;;;5101899;28;20656;-81
2022/09/11 08:59:25;;;;;;;2.70;2.50;;;16.80;99.90;;;;;;5109051;28;20631;-82
2022/09/11 09:01:58;;;;;;;3.80;2.80;;;16.80;99.90;;;;;;5107822;28;20630;-83
2022/09/11 09:04:40;;;;;;;3.37;2.40;;;16.90;99.90;;;;;;5110898;28;20638;-82
2022/09/11 09:07:16;;;;;;;3.27;1.90;;;16.90;99.90;;;;;;5091205;28;20637;-81
2022/09/11 09:09:52;;;;;;;2.30;2.10;;;17.00;99.90;;;;;;5091620;28;20629;-82
2022/09/11 09:12:26;;;;;;;2.50;2.07;;;17.10;99.90;;;;;;5106811;28;21142;-82
2022/09/11 09:15:23;;;;;;;1.90;1.80;;;17.20;99.90;;;;;;5090405;28;20994;-82
2022/09/11 09:17:55;;;;;;;2.40;2.00;;;17.40;99.90;;;;;;5091753;28;20643;-81
2022/09/11 09:20:29;;;;;;;2.43;2.10;;;17.80;99.90;;;;;;5109264;28;21152;-82
2022/09/11 09:23:00;;;;;;;2.83;2.50;;;17.70;99.90;;;;;;5108115;28;20628;-82
2022/09/11 09:25:28;;;;;;;5.13;4.73;;;17.80;99.90;;;;;;5094249;28;20969;-82
2022/09/11 09:27:59;;;;;;;2.70;2.50;;;17.90;99.90;;;;;;5106664;27;20631;-82
2022/09/11 09:30:31;;;;;;;3.23;2.00;;;18.10;99.90;;;;;;5110836;28;20628;-82
2022/09/11 09:33:05;;;;;;;2.53;2.33;;;18.10;99.20;;;;;;5091401;28;20666;-81
2022/09/11 09:35:40;;;;;;;1.77;1.63;;;18.40;99.40;;;;;;5105283;28;20719;-82
2022/09/11 09:38:12;;;;;;;1.90;1.80;;;18.40;98.20;;;;;;5110209;28;20615;-82
2022/09/11 09:40:47;;;;;;;1.87;1.77;;;18.60;98.60;;;;;;5093415;28;20620;-83
2022/09/11 09:43:27;;;;;;;2.40;2.20;;;18.60;98.70;;;;;;5108372;28;20619;-82
2022/09/11 09:46:10;;;;;;;2.57;1.90;;;18.50;97.60;;;;;;5109954;28;20973;-82
2022/09/11 09:48:39;;;;;;;2.60;1.93;;;18.40;98.70;;;;;;5104926;28;21063;-82
2022/09/11 09:51:10;;;;;;;2.53;2.33;;;18.20;98.10;;;;;;5106043;28;20631;-82
2022/09/11 09:53:41;;;;;;;2.40;1.50;;;18.20;98.60;;;;;;5095204;28;20672;-82
2022/09/11 09:56:12;;;;;;;2.90;2.67;;;18.10;98.70;;;;;;5098759;28;20664;-83
2022/09/11 09:58:50;;;;;;;2.47;2.27;;;18.10;98.90;;;;;;5105972;28;20634;-82
2022/09/11 10:01:48;;;;;;;2.93;2.70;;;18.00;98.90;;;;;;5104409;28;21058;-82
2022/09/11 10:04:18;;;;;;;2.63;2.07;;;18.00;98.80;;;;;;5090135;28;21265;-83
2022/09/11 10:06:46;;;;;;;2.73;2.27;;;17.90;98.80;;;;;;5090321;28;20621;-82
2022/09/11 10:09:21;;;;;;;3.03;2.40;;;17.90;98.60;;;;;;5090739;28;20624;-82
2022/09/11 10:11:54;;;;;;;2.93;2.73;;;18.20;98.80;;;;;;5090485;28;20612;-83
2022/09/11 10:14:23;;;;;;;3.27;2.10;;;18.20;98.40;;;;;;5089167;28;20987;-82
2022/09/11 10:16:52;;;;;;;2.70;2.07;;;18.20;97.90;;;;;;5090001;28;21260;-83
2022/09/11 10:19:41;;;;;;;2.40;2.20;;;18.20;97.70;;;;;;5090369;28;21011;-83
2022/09/11 10:22:27;;;;;;;1.87;1.73;;;18.10;98.20;;;;;;5089964;28;20747;-83
2022/09/11 10:25:09;;;;;;;2.40;2.00;;;18.20;98.80;;;;;;5089059;28;20612;-82
2022/09/11 10:27:42;;;;;;;3.00;1.93;;;18.20;97.90;;;;;;5091020;28;21150;-82
2022/09/11 10:30:28;;;;;;;2.40;2.20;;;18.30;98.50;;;;;;5089991;28;20620;-82
2022/09/11 10:32:58;;;;;;;2.87;2.30;;;18.30;99.10;;;;;;5109258;28;20735;-83
2022/09/11 10:35:26;;;;;;;2.47;2.17;;;18.30;99.40;;;;;;5108823;27;20671;-83
2022/09/11 10:38:06;;;;;;;2.10;1.90;;;18.40;98.30;;;;;;5108052;28;20616;-83
2022/09/11 10:40:33;;;;;;;2.53;2.13;;;18.40;98.00;;;;;;5110418;28;20703;-82
2022/09/11 10:43:00;;;;;;;2.57;2.27;;;18.40;97.10;;;;;;5093593;28;20636;-82
2022/09/11 10:45:27;;;;;;;3.20;2.80;;;18.40;98.10;;;;;;5098431;28;20630;-83
2022/09/11 10:47:54;;;;;;;3.10;2.70;;;18.30;97.50;;;;;;5106840;28;20631;-83
2022/09/11 10:50:27;;;;;;;3.60;2.27;;;18.30;97.50;;;;;;5106941;28;20703;-81
2022/09/11 10:53:15;;;;;;;2.93;2.53;;;18.30;97.20;;;;;;5089907;28;20628;-82
2022/09/11 10:55:48;;;;;;;3.87;2.63;;;18.10;97.50;;;;;;5088937;28;21011;-81
2022/09/11 10:58:18;;;;;;;2.90;2.60;;;18.30;97.50;;;;;;5093610;28;20626;-82
2022/09/11 11:00:46;;;;;;;5.73;3.00;;;18.60;97.80;;;;;;5106115;28;20728;-83
2022/09/11 11:03:19;;;;;;;2.77;2.30;;;18.90;97.10;;;;;;5101131;28;20643;-83
2022/09/11 11:05:58;;;;;;;3.23;2.50;;;19.00;96.60;;;;;;5109520;28;20620;-83
2022/09/11 11:08:55;;;;;;;2.70;2.43;;;19.10;97.60;;;;;;5088916;28;21181;-83
2022/09/11 11:11:36;;;;;;;2.90;2.57;;;19.20;96.40;;;;;;5089141;28;21215;-82
2022/09/11 11:14:22;;;;;;;3.60;2.93;;;19.30;95.30;;;;;;5089548;28;20620;-84
2022/09/11 11:16:59;;;;;;;2.00;1.83;;;19.40;94.40;;;;;;5087939;28;20656;-82
2022/09/11 11:19:45;;;;;;;2.20;2.00;;;19.40;95.70;;;;;;5089148;28;20628;-82
2022/09/11 11:22:26;;;;;;;3.00;2.60;;;19.20;95.30;;;;;;5089071;28;21348;-82
2022/09/11 11:25:06;;;;;;;2.33;2.10;;;19.10;97.30;;;;;;5088628;28;20635;-82
2022/09/11 11:27:55;;;;;;;2.57;2.37;;;18.90;97.00;;;;;;5088636;28;20640;-82
2022/09/11 11:30:28;;;;;;;3.60;2.77;;;18.80;97.00;;;;;;5089188;28;20627;-82
2022/09/11 11:33:09;;;;;;;3.37;2.40;;;18.80;96.90;;;;;;5097967;28;20622;-83
2022/09/11 11:35:43;;;;;;;2.30;2.10;;;18.70;97.60;;;;;;5102612;28;21004;-82
2022/09/11 11:38:19;;;;;;;3.23;2.33;;;18.70;97.40;;;;;;5109321;28;20635;-82
2022/09/11 11:40:52;;;;;;;2.40;2.27;;;18.60;97.80;;;;;;5089826;28;20616;-83
2022/09/11 11:43:23;;;;;;;5.10;2.87;;;18.60;97.60;;;;;;5087699;28;21066;-82
2022/09/11 11:45:55;;;;;;;2.43;2.23;;;18.70;98.30;;;;;;5088956;28;20628;-84
2022/09/11 11:48:26;;;;;;;3.17;2.67;;;18.80;97.40;;;;;;5097033;28;20627;-82
2022/09/11 11:50:56;;;;;;;2.47;2.27;;;18.80;96.60;;;;;;5107369;28;21081;-83
2022/09/11 11:53:28;;;;;;;2.70;2.50;;;19.00;97.30;;;;;;5096029;28;21017;-83
2022/09/11 11:56:04;;;;;;;2.30;2.07;;;19.20;96.70;;;;;;5106324;28;21315;-81
2022/09/11 11:58:45;;;;;;;2.40;2.20;;;19.40;95.50;;;;;;5103101;28;20633;-83
2022/09/11 12:01:21;;;;;;;3.17;2.47;;;19.50;95.30;;;;;;5105679;28;20685;-84
2022/09/11 12:03:52;;;;;;;3.90;3.47;;;19.50;95.60;;;;;;5095564;28;20624;-82
2022/09/11 12:06:19;;;;;;;2.43;2.23;;;19.50;96.00;;;;;;5093245;28;20627;-82
2022/09/11 12:08:48;;;;;;;2.63;2.10;;;19.30;97.00;;;;;;5107041;28;20625;-82
2022/09/11 12:11:18;;;;;;;3.23;2.57;;;19.20;96.90;;;;;;5102444;28;20620;-82
2022/09/11 12:13:47;;;;;;;3.17;2.87;;;19.20;97.10;;;;;;5096353;28;21219;-82
2022/09/11 12:16:18;;;;;;;1.70;1.60;;;19.10;96.30;;;;;;5091042;28;21274;-83
2022/09/11 12:19:07;;;;;;;2.87;2.20;;;19.10;96.10;;;;;;5099470;28;20616;-83
2022/09/11 12:21:37;;;;;;;2.40;2.20;;;19.00;95.70;;;;;;5093071;28;20655;-83
2022/09/11 12:24:16;;;;;;;3.37;2.83;;;19.10;96.90;;;;;;5108026;28;21205;-82
2022/09/11 12:26:43;;;;;;;3.10;2.50;;;19.20;96.30;;;;;;5107082;28;20680;-83
2022/09/11 12:29:49;;;;;;;2.33;2.13;;;19.40;95.70;;;;;;5093382;28;20644;-81
2022/09/11 12:32:42;;;;;;;5.90;3.30;;;19.70;95.00;;;;;;5088288;28;20728;-82
2022/09/11 12:35:20;;;;;;;2.60;2.40;;;19.90;95.50;;;;;;5077166;28;21245;-82
2022/09/11 12:37:54;;;;;;;2.20;2.00;;;19.90;94.40;;;;;;5092857;28;20663;-83
2022/09/11 12:40:32;;;;;;;1.97;1.83;;;20.00;95.00;;;;;;5090586;28;20685;-83
2022/09/11 12:43:17;;;;;;;3.13;2.83;;;20.00;94.00;;;;;;5097742;28;20618;-82
2022/09/11 12:45:46;;;;;;;3.10;2.70;;;20.10;93.90;;;;;;5106302;28;20630;-83
2022/09/11 12:48:15;;;;;;;3.03;2.00;;;20.20;93.80;;;;;;5103993;28;21020;-83
2022/09/11 12:50:49;;;;;;;1.80;1.70;;;20.10;92.40;;;;;;5087316;28;20702;-81
2022/09/11 12:53:22;;;;;;;1.97;1.80;;;20.10;91.90;;;;;;5087656;28;20616;-82
2022/09/11 12:56:00;;;;;;;2.40;1.87;;;20.10;92.40;;;;;;5103026;28;20626;-81
2022/09/11 12:58:32;;;;;;;2.20;1.70;;;20.10;93.20;;;;;;5094748;28;20666;-82
2022/09/11 13:01:19;;;;;;;3.17;2.87;;;20.00;93.10;;;;;;5105183;28;20619;-81
2022/09/11 13:03:52;;;;;;;3.53;3.23;;;20.00;92.70;;;;;;5103698;28;20718;-80
2022/09/11 13:06:20;;;;;;;2.53;2.33;;;19.60;93.50;;;;;;5105288;28;21308;-81
2022/09/11 13:08:49;;;;;;;4.33;2.70;;;19.70;95.00;;;;;;5105604;28;20650;-81
2022/09/11 13:11:51;;;;;;;2.60;2.40;;;19.90;94.90;;;;;;5103021;28;21241;-81